sensor_id;sensor_type;location;lat;lon;timestamp;pressure;altitude;pressure_sealevel;temperature;humidity
11053;BME280;55230;42.602;23.470;2023-04-07T00:01:02;93234.50;;;-0.38;72.56
11053;BME280;55230;42.602;23.470;2023-04-07T00:03:29;92907.03;;;-2.07;72.12
11053;BME280;55230;42.602;23.470;2023-04-07T00:05:56;93023.97;;;-1.68;70.27
11053;BME280;55230;42.602;23.470;2023-04-07T00:08:24;93098.44;;;-0.72;68.46
11053;BME280;55230;42.602;23.470;2023-04-07T00:10:55;93237.25;;;0.24;68.01
11053;BME280;55230;42.602;23.470;2023-04-07T00:13:33;93294.03;;;0.23;68.97
11053;BME280;55230;42.602;23.470;2023-04-07T00:16:00;93191.19;;;-0.04;68.12
11053;BME280;55230;42.602;23.470;2023-04-07T00:18:27;93198.78;;;-0.09;68.28
11053;BME280;55230;42.602;23.470;2023-04-07T00:20:54;92903.28;;;-2.13;67.78
11053;BME280;55230;42.602;23.470;2023-04-07T00:23:21;93249.31;;;0.28;66.81
11053;BME280;55230;42.602;23.470;2023-04-07T00:25:48;93272.41;;;0.31;67.03
11053;BME280;55230;42.602;23.470;2023-04-07T00:28:16;93086.31;;;-0.66;67.55
11053;BME280;55230;42.602;23.470;2023-04-07T00:30:43;92998.94;;;-1.32;67.44
11053;BME280;55230;42.602;23.470;2023-04-07T00:33:10;93018.09;;;-1.10;66.71
11053;BME280;55230;42.602;23.470;2023-04-07T00:35:37;93229.25;;;0.31;66.81
11053;BME280;55230;42.602;23.470;2023-04-07T00:38:04;93235.00;;;0.19;66.95
11053;BME280;55230;42.602;23.470;2023-04-07T00:40:31;93003.41;;;-1.22;66.98
11053;BME280;55230;42.602;23.470;2023-04-07T00:42:57;93230.69;;;0.39;68.24
11053;BME280;55230;42.602;23.470;2023-04-07T00:45:26;93158.97;;;0.05;65.65
11053;BME280;55230;42.602;23.470;2023-04-07T00:47:53;93207.72;;;0.18;65.67
11053;BME280;55230;42.602;23.470;2023-04-07T00:50:20;93153.25;;;0.10;65.56
11053;BME280;55230;42.602;23.470;2023-04-07T00:52:46;93094.47;;;-0.36;64.55
11053;BME280;55230;42.602;23.470;2023-04-07T00:55:13;93256.69;;;0.61;64.06
11053;BME280;55230;42.602;23.470;2023-04-07T00:57:40;93160.34;;;0.24;63.51
11053;BME280;55230;42.602;23.470;2023-04-07T01:00:08;93208.22;;;0.57;64.46
11053;BME280;55230;42.602;23.470;2023-04-07T01:02:40;93215.75;;;0.62;64.07
11053;BME280;55230;42.602;23.470;2023-04-07T01:05:13;93182.56;;;0.40;64.03
11053;BME280;55230;42.602;23.470;2023-04-07T01:07:47;93166.06;;;0.22;63.88
11053;BME280;55230;42.602;23.470;2023-04-07T01:10:20;93179.34;;;0.19;64.76
11053;BME280;55230;42.602;23.470;2023-04-07T01:12:56;93228.34;;;0.51;64.96
11053;BME280;55230;42.602;23.470;2023-04-07T01:15:25;93085.78;;;-0.33;64.93
11053;BME280;55230;42.602;23.470;2023-04-07T01:17:59;93209.84;;;0.44;64.11
11053;BME280;55230;42.602;23.470;2023-04-07T01:20:29;93143.22;;;-0.20;64.98
11053;BME280;55230;42.602;23.470;2023-04-07T01:23:02;92737.53;;;-2.71;64.61
11053;BME280;55230;42.602;23.470;2023-04-07T01:25:48;93225.84;;;0.30;65.61
11053;BME280;55230;42.602;23.470;2023-04-07T01:28:35;93217.13;;;0.30;66.07
11053;BME280;55230;42.602;23.470;2023-04-07T01:31:07;93123.88;;;-0.13;66.37
11053;BME280;55230;42.602;23.470;2023-04-07T01:33:36;93117.97;;;-0.38;65.31
11053;BME280;55230;42.602;23.470;2023-04-07T01:36:06;93137.53;;;-0.22;65.89
11053;BME280;55230;42.602;23.470;2023-04-07T01:38:33;93157.06;;;0.02;64.90
11053;BME280;55230;42.602;23.470;2023-04-07T01:41:00;93194.03;;;0.27;65.25
11053;BME280;55230;42.602;23.470;2023-04-07T01:43:29;92786.56;;;-2.87;65.43
11053;BME280;55230;42.602;23.470;2023-04-07T01:45:57;93178.19;;;0.20;64.32
11053;BME280;55230;42.602;23.470;2023-04-07T01:48:26;93013.53;;;-1.02;64.58
11053;BME280;55230;42.602;23.470;2023-04-07T01:50:54;93179.69;;;0.24;64.65
11053;BME280;55230;42.602;23.470;2023-04-07T01:53:22;93184.84;;;0.42;64.16
11053;BME280;55230;42.602;23.470;2023-04-07T01:55:51;93101.28;;;-0.35;63.26
11053;BME280;55230;42.602;23.470;2023-04-07T01:58:19;93109.34;;;0.06;63.22
11053;BME280;55230;42.602;23.470;2023-04-07T02:00:46;93183.22;;;0.58;62.92
11053;BME280;55230;42.602;23.470;2023-04-07T02:03:30;93093.25;;;-0.18;62.33
11053;BME280;55230;42.602;23.470;2023-04-07T02:06:04;93067.94;;;-0.29;62.64
11053;BME280;55230;42.602;23.470;2023-04-07T02:08:32;93123.66;;;0.19;62.26
11053;BME280;55230;42.602;23.470;2023-04-07T02:11:02;92970.69;;;-0.76;61.99
11053;BME280;55230;42.602;23.470;2023-04-07T02:13:33;93101.09;;;0.00;61.61
11053;BME280;55230;42.602;23.470;2023-04-07T02:16:01;93141.69;;;0.41;62.00
11053;BME280;55230;42.602;23.470;2023-04-07T02:18:31;93214.22;;;0.68;61.28
11053;BME280;55230;42.602;23.470;2023-04-07T02:20:59;93050.13;;;-0.22;60.85
11053;BME280;55230;42.602;23.470;2023-04-07T02:23:27;93087.56;;;-0.16;60.36
11053;BME280;55230;42.602;23.470;2023-04-07T02:25:55;93126.09;;;-0.08;61.08
11053;BME280;55230;42.602;23.470;2023-04-07T02:28:23;93166.47;;;0.65;59.71
11053;BME280;55230;42.602;23.470;2023-04-07T02:31:03;93166.84;;;0.67;60.83
11053;BME280;55230;42.602;23.470;2023-04-07T02:33:42;92965.34;;;-0.69;60.81
11053;BME280;55230;42.602;23.470;2023-04-07T02:36:19;92750.13;;;-2.13;60.80
11053;BME280;55230;42.602;23.470;2023-04-07T02:38:46;93207.66;;;0.80;61.19
11053;BME280;55230;42.602;23.470;2023-04-07T02:41:16;93216.38;;;0.80;61.03
11053;BME280;55230;42.602;23.470;2023-04-07T02:43:45;92946.56;;;-0.89;62.08
11053;BME280;55230;42.602;23.470;2023-04-07T02:46:15;92438.34;;;-4.11;60.43
11053;BME280;55230;42.602;23.470;2023-04-07T02:48:55;93197.03;;;0.83;61.30
11053;BME280;55230;42.602;23.470;2023-04-07T02:51:25;93020.97;;;-0.18;60.38
11053;BME280;55230;42.602;23.470;2023-04-07T02:53:52;93095.84;;;0.41;60.11
11053;BME280;55230;42.602;23.470;2023-04-07T02:56:18;93209.75;;;1.02;60.68
11053;BME280;55230;42.602;23.470;2023-04-07T02:58:45;93186.75;;;0.41;60.54
11053;BME280;55230;42.602;23.470;2023-04-07T03:01:12;93072.31;;;0.43;58.98
11053;BME280;55230;42.602;23.470;2023-04-07T03:03:39;93181.84;;;1.25;60.83
11053;BME280;55230;42.602;23.470;2023-04-07T03:06:08;93201.66;;;1.16;60.30
11053;BME280;55230;42.602;23.470;2023-04-07T03:08:34;93073.16;;;0.36;58.65
11053;BME280;55230;42.602;23.470;2023-04-07T03:11:04;93195.59;;;1.16;59.61
11053;BME280;55230;42.602;23.470;2023-04-07T03:13:34;93229.69;;;1.17;65.02
11053;BME280;55230;42.602;23.470;2023-04-07T03:16:01;93210.84;;;1.08;67.60
11053;BME280;55230;42.602;23.470;2023-04-07T03:18:27;93221.75;;;0.73;73.08
11053;BME280;55230;42.602;23.470;2023-04-07T03:21:01;92852.72;;;-2.01;74.72
11053;BME280;55230;42.602;23.470;2023-04-07T03:23:34;92787.19;;;-2.38;74.79
11053;BME280;55230;42.602;23.470;2023-04-07T03:26:01;92991.91;;;-0.83;75.79
11053;BME280;55230;42.602;23.470;2023-04-07T03:28:33;92949.97;;;-0.88;75.77
11053;BME280;55230;42.602;23.470;2023-04-07T03:31:00;92499.91;;;-3.80;75.36
11053;BME280;55230;42.602;23.470;2023-04-07T03:33:27;93033.94;;;-0.34;76.98
11053;BME280;55230;42.602;23.470;2023-04-07T03:35:54;92901.31;;;-1.08;76.94
11053;BME280;55230;42.602;23.470;2023-04-07T03:38:21;92882.03;;;-1.05;77.21
11053;BME280;55230;42.602;23.470;2023-04-07T03:40:49;93068.81;;;0.12;77.46
11053;BME280;55230;42.602;23.470;2023-04-07T03:43:18;93003.81;;;-0.54;76.98
11053;BME280;55230;42.602;23.470;2023-04-07T03:45:45;93165.16;;;0.39;76.47
11053;BME280;55230;42.602;23.470;2023-04-07T03:48:12;92801.53;;;-2.35;75.57
11053;BME280;55230;42.602;23.470;2023-04-07T03:50:40;92563.09;;;-3.70;73.14
11053;BME280;55230;42.602;23.470;2023-04-07T03:53:07;93089.50;;;-0.24;71.47
11053;BME280;55230;42.602;23.470;2023-04-07T03:55:34;93215.94;;;0.41;69.24
11053;BME280;55230;42.602;23.470;2023-04-07T03:58:03;93127.22;;;-0.06;68.32
11053;BME280;55230;42.602;23.470;2023-04-07T04:00:30;93091.91;;;-0.43;67.57
11053;BME280;55230;42.602;23.470;2023-04-07T04:02:57;93015.41;;;-1.03;66.93
11053;BME280;55230;42.602;23.470;2023-04-07T04:05:24;93004.31;;;-0.73;66.46
11053;BME280;55230;42.602;23.470;2023-04-07T04:07:51;93081.09;;;-0.15;66.47
11053;BME280;55230;42.602;23.470;2023-04-07T04:10:18;93200.22;;;0.64;66.12
11053;BME280;55230;42.602;23.470;2023-04-07T04:12:46;93235.81;;;0.67;66.88
11053;BME280;55230;42.602;23.470;2023-04-07T04:15:14;93218.72;;;0.71;66.42
11053;BME280;55230;42.602;23.470;2023-04-07T04:17:41;93203.94;;;0.74;66.13
11053;BME280;55230;42.602;23.470;2023-04-07T04:20:08;92960.19;;;-0.90;65.25
11053;BME280;55230;42.602;23.470;2023-04-07T04:22:35;93120.50;;;0.34;65.20
11053;BME280;55230;42.602;23.470;2023-04-07T04:25:03;93197.59;;;0.57;64.75
11053;BME280;55230;42.602;23.470;2023-04-07T04:27:30;93232.81;;;1.09;64.13
11053;BME280;55230;42.602;23.470;2023-04-07T04:29:57;93032.94;;;-0.03;63.94
11053;BME280;55230;42.602;23.470;2023-04-07T04:32:25;93066.81;;;-0.28;62.80
11053;BME280;55230;42.602;23.470;2023-04-07T04:34:52;93141.25;;;0.87;62.52
11053;BME280;55230;42.602;23.470;2023-04-07T04:37:19;93004.44;;;-0.36;59.72
11053;BME280;55230;42.602;23.470;2023-04-07T04:39:45;93130.25;;;0.48;68.14
11053;BME280;55230;42.602;23.470;2023-04-07T04:42:12;93219.69;;;1.36;67.98
11053;BME280;55230;42.602;23.470;2023-04-07T04:44:39;93235.09;;;1.48;68.36
11053;BME280;55230;42.602;23.470;2023-04-07T04:47:06;93125.97;;;0.57;69.83
11053;BME280;55230;42.602;23.470;2023-04-07T04:49:34;93230.91;;;1.09;71.72
11053;BME280;55230;42.602;23.470;2023-04-07T04:52:01;93002.16;;;-0.34;72.05
11053;BME280;55230;42.602;23.470;2023-04-07T04:54:27;93214.06;;;1.27;73.04
11053;BME280;55230;42.602;23.470;2023-04-07T04:56:54;93137.56;;;0.77;72.75
11053;BME280;55230;42.602;23.470;2023-04-07T04:59:21;93157.38;;;1.06;72.15
11053;BME280;55230;42.602;23.470;2023-04-07T05:01:48;93134.81;;;0.88;70.98
11053;BME280;55230;42.602;23.470;2023-04-07T05:04:15;93016.44;;;-0.21;71.39
11053;BME280;55230;42.602;23.470;2023-04-07T05:06:43;93210.19;;;0.97;72.55
11053;BME280;55230;42.602;23.470;2023-04-07T05:09:10;93172.72;;;0.88;71.36
11053;BME280;55230;42.602;23.470;2023-04-07T05:11:37;93246.63;;;1.71;71.99
11053;BME280;55230;42.602;23.470;2023-04-07T05:14:04;93284.25;;;2.03;72.22
11053;BME280;55230;42.602;23.470;2023-04-07T05:16:31;93240.59;;;2.31;71.85
11053;BME280;55230;42.602;23.470;2023-04-07T05:18:57;93242.44;;;2.61;69.00
11053;BME280;55230;42.602;23.470;2023-04-07T05:21:24;93246.19;;;2.36;68.45
11053;BME280;55230;42.602;23.470;2023-04-07T05:23:52;93246.44;;;2.19;68.58
11053;BME280;55230;42.602;23.470;2023-04-07T05:26:19;93246.91;;;2.14;68.86
11053;BME280;55230;42.602;23.470;2023-04-07T05:28:46;93179.03;;;1.72;69.57
11053;BME280;55230;42.602;23.470;2023-04-07T05:31:13;93253.47;;;2.02;69.30
11053;BME280;55230;42.602;23.470;2023-04-07T05:33:40;93240.78;;;2.17;68.79
11053;BME280;55230;42.602;23.470;2023-04-07T05:36:07;92998.94;;;0.66;68.57
11053;BME280;55230;42.602;23.470;2023-04-07T05:38:34;93248.44;;;2.68;67.84
11053;BME280;55230;42.602;23.470;2023-04-07T05:41:02;93126.66;;;1.99;67.78
11053;BME280;55230;42.602;23.470;2023-04-07T05:43:29;93211.16;;;2.68;68.78
11053;BME280;55230;42.602;23.470;2023-04-07T05:45:56;93248.53;;;3.11;66.90
11053;BME280;55230;42.602;23.470;2023-04-07T05:48:22;93120.75;;;2.15;64.60
11053;BME280;55230;42.602;23.470;2023-04-07T05:50:49;93204.75;;;2.39;67.80
11053;BME280;55230;42.602;23.470;2023-04-07T05:53:16;93259.41;;;2.44;70.81
11053;BME280;55230;42.602;23.470;2023-04-07T05:55:43;93174.53;;;1.66;71.49
11053;BME280;55230;42.602;23.470;2023-04-07T05:58:11;93204.59;;;1.93;71.57
11053;BME280;55230;42.602;23.470;2023-04-07T06:00:39;93274.25;;;2.11;72.95
11053;BME280;55230;42.602;23.470;2023-04-07T06:03:06;93260.25;;;2.37;72.16
11053;BME280;55230;42.602;23.470;2023-04-07T06:05:33;93268.50;;;2.46;71.39
11053;BME280;55230;42.602;23.470;2023-04-07T06:08:00;93259.13;;;2.65;69.86
11053;BME280;55230;42.602;23.470;2023-04-07T06:10:26;93252.84;;;2.78;67.74
11053;BME280;55230;42.602;23.470;2023-04-07T06:12:53;93135.38;;;2.53;65.71
11053;BME280;55230;42.602;23.470;2023-04-07T06:15:21;93256.91;;;3.55;66.82
11053;BME280;55230;42.602;23.470;2023-04-07T06:17:48;93264.00;;;4.05;64.94
11053;BME280;55230;42.602;23.470;2023-04-07T06:20:15;93276.94;;;4.06;61.99
11053;BME280;55230;42.602;23.470;2023-04-07T06:22:42;93069.03;;;1.93;62.22
11053;BME280;55230;42.602;23.470;2023-04-07T06:25:09;93039.13;;;2.12;64.74
11053;BME280;55230;42.602;23.470;2023-04-07T06:27:36;92781.47;;;0.63;62.40
11053;BME280;55230;42.602;23.470;2023-04-07T06:30:03;93213.59;;;3.91;60.79
11053;BME280;55230;42.602;23.470;2023-04-07T06:32:31;92994.75;;;2.52;60.21
11053;BME280;55230;42.602;23.470;2023-04-07T06:34:59;93249.66;;;4.54;60.18
11053;BME280;55230;42.602;23.470;2023-04-07T06:37:26;93242.69;;;4.92;57.54
11053;BME280;55230;42.602;23.470;2023-04-07T06:39:53;93103.06;;;3.76;58.25
11053;BME280;55230;42.602;23.470;2023-04-07T06:42:20;93031.41;;;2.83;59.94
11053;BME280;55230;42.602;23.470;2023-04-07T06:44:46;93204.63;;;4.72;55.85
11053;BME280;55230;42.602;23.470;2023-04-07T06:47:13;93260.53;;;5.75;54.53
11053;BME280;55230;42.602;23.470;2023-04-07T06:49:41;93242.72;;;5.08;53.71
11053;BME280;55230;42.602;23.470;2023-04-07T06:52:08;93262.56;;;4.91;59.17
11053;BME280;55230;42.602;23.470;2023-04-07T06:54:35;93120.97;;;5.07;50.40
11053;BME280;55230;42.602;23.470;2023-04-07T06:57:02;93273.91;;;5.75;51.33
11053;BME280;55230;42.602;23.470;2023-04-07T06:59:31;93272.59;;;5.35;51.73
11053;BME280;55230;42.602;23.470;2023-04-07T07:01:57;93265.84;;;5.47;51.99
11053;BME280;55230;42.602;23.470;2023-04-07T07:04:24;93270.94;;;5.25;51.39
11053;BME280;55230;42.602;23.470;2023-04-07T07:06:52;93177.16;;;4.04;51.69
11053;BME280;55230;42.602;23.470;2023-04-07T07:09:20;93193.06;;;4.43;50.48
11053;BME280;55230;42.602;23.470;2023-04-07T07:11:47;93336.47;;;4.62;52.57
11053;BME280;55230;42.602;23.470;2023-04-07T07:14:14;93168.31;;;3.68;55.46
11053;BME280;55230;42.602;23.470;2023-04-07T07:16:40;93081.13;;;3.09;54.02
11053;BME280;55230;42.602;23.470;2023-04-07T07:19:07;93245.25;;;3.89;53.54
11053;BME280;55230;42.602;23.470;2023-04-07T07:21:35;93302.03;;;4.48;56.49
11053;BME280;55230;42.602;23.470;2023-04-07T07:24:03;93192.41;;;3.84;55.00
11053;BME280;55230;42.602;23.470;2023-04-07T07:26:30;93303.34;;;4.40;55.32
11053;BME280;55230;42.602;23.470;2023-04-07T07:28:57;93271.97;;;4.44;56.32
11053;BME280;55230;42.602;23.470;2023-04-07T07:31:24;93273.78;;;4.66;54.26
11053;BME280;55230;42.602;23.470;2023-04-07T07:33:51;93280.66;;;4.67;54.40
11053;BME280;55230;42.602;23.470;2023-04-07T07:36:18;92876.28;;;1.62;51.77
11053;BME280;55230;42.602;23.470;2023-04-07T07:38:45;93194.13;;;3.74;52.29
11053;BME280;55230;42.602;23.470;2023-04-07T07:41:13;93273.00;;;4.50;53.03
11053;BME280;55230;42.602;23.470;2023-04-07T07:43:39;92977.50;;;2.79;51.56
11053;BME280;55230;42.602;23.470;2023-04-07T07:46:06;92908.53;;;1.83;49.76
11053;BME280;55230;42.602;23.470;2023-04-07T07:48:33;93211.28;;;4.12;49.96
11053;BME280;55230;42.602;23.470;2023-04-07T07:51:00;93166.41;;;3.88;49.53
11053;BME280;55230;42.602;23.470;2023-04-07T07:53:27;93250.66;;;4.60;51.04
11053;BME280;55230;42.602;23.470;2023-04-07T07:55:53;93241.22;;;4.91;49.84
11053;BME280;55230;42.602;23.470;2023-04-07T07:58:22;93188.44;;;5.11;49.18
11053;BME280;55230;42.602;23.470;2023-04-07T08:00:49;93287.81;;;5.54;47.34
11053;BME280;55230;42.602;23.470;2023-04-07T08:03:16;93278.97;;;5.41;50.85
11053;BME280;55230;42.602;23.470;2023-04-07T08:05:44;93217.63;;;5.50;48.49
11053;BME280;55230;42.602;23.470;2023-04-07T08:08:11;93303.91;;;6.69;48.76
11053;BME280;55230;42.602;23.470;2023-04-07T08:10:37;93262.69;;;6.38;45.48
11053;BME280;55230;42.602;23.470;2023-04-07T08:13:04;93298.81;;;7.12;46.98
11053;BME280;55230;42.602;23.470;2023-04-07T08:15:32;93267.38;;;7.25;45.14
11053;BME280;55230;42.602;23.470;2023-04-07T08:17:59;93300.19;;;7.17;44.52
11053;BME280;55230;42.602;23.470;2023-04-07T08:20:28;93102.03;;;6.13;44.61
11053;BME280;55230;42.602;23.470;2023-04-07T08:22:55;93236.59;;;6.92;44.99
11053;BME280;55230;42.602;23.470;2023-04-07T08:25:22;93250.88;;;6.76;45.70
11053;BME280;55230;42.602;23.470;2023-04-07T08:27:49;93205.22;;;6.67;44.46
11053;BME280;55230;42.602;23.470;2023-04-07T08:30:16;93286.69;;;7.07;47.07
11053;BME280;55230;42.602;23.470;2023-04-07T08:32:44;93305.06;;;6.68;45.04
11053;BME280;55230;42.602;23.470;2023-04-07T08:35:11;93264.13;;;6.55;45.96
11053;BME280;55230;42.602;23.470;2023-04-07T08:37:38;93320.03;;;7.32;44.86
11053;BME280;55230;42.602;23.470;2023-04-07T08:40:06;93305.59;;;7.88;47.78
11053;BME280;55230;42.602;23.470;2023-04-07T08:42:34;93174.00;;;7.79;45.00
11053;BME280;55230;42.602;23.470;2023-04-07T08:45:06;93289.06;;;8.46;43.76
11053;BME280;55230;42.602;23.470;2023-04-07T08:47:35;93301.38;;;7.28;46.27
11053;BME280;55230;42.602;23.470;2023-04-07T08:50:05;93087.84;;;5.46;46.57
11053;BME280;55230;42.602;23.470;2023-04-07T08:52:34;93297.50;;;6.79;45.85
11053;BME280;55230;42.602;23.470;2023-04-07T08:55:03;92822.13;;;3.37;45.86
11053;BME280;55230;42.602;23.470;2023-04-07T08:57:31;93300.69;;;6.74;47.09
11053;BME280;55230;42.602;23.470;2023-04-07T08:59:59;93228.06;;;6.18;46.81
11053;BME280;55230;42.602;23.470;2023-04-07T09:02:30;93297.50;;;7.04;44.16
11053;BME280;55230;42.602;23.470;2023-04-07T09:04:58;93290.84;;;6.71;45.48
11053;BME280;55230;42.602;23.470;2023-04-07T09:07:26;92989.19;;;5.64;46.48
11053;BME280;55230;42.602;23.470;2023-04-07T09:09:54;93221.31;;;8.07;45.11
11053;BME280;55230;42.602;23.470;2023-04-07T09:12:21;93291.00;;;8.45;42.20
11053;BME280;55230;42.602;23.470;2023-04-07T09:14:48;93121.41;;;7.26;40.57
11053;BME280;55230;42.602;23.470;2023-04-07T09:17:14;93130.16;;;7.27;39.08
11053;BME280;55230;42.602;23.470;2023-04-07T09:19:41;93287.41;;;7.92;40.66
11053;BME280;55230;42.602;23.470;2023-04-07T09:22:08;93173.19;;;7.23;40.22
11053;BME280;55230;42.602;23.470;2023-04-07T09:24:40;93295.69;;;8.32;41.58
11053;BME280;55230;42.602;23.470;2023-04-07T09:27:08;93272.22;;;8.11;40.13
11053;BME280;55230;42.602;23.470;2023-04-07T09:29:36;93240.00;;;7.77;42.11
11053;BME280;55230;42.602;23.470;2023-04-07T09:32:03;93179.91;;;6.81;43.19
11053;BME280;55230;42.602;23.470;2023-04-07T09:34:32;93273.75;;;7.65;40.91
11053;BME280;55230;42.602;23.470;2023-04-07T09:37:00;93305.09;;;7.68;41.17
11053;BME280;55230;42.602;23.470;2023-04-07T09:39:28;93232.16;;;7.48;41.37
11053;BME280;55230;42.602;23.470;2023-04-07T09:41:56;93231.25;;;7.17;41.30
11053;BME280;55230;42.602;23.470;2023-04-07T09:44:24;93175.75;;;6.55;41.54
11053;BME280;55230;42.602;23.470;2023-04-07T09:46:52;93233.88;;;7.42;42.15
11053;BME280;55230;42.602;23.470;2023-04-07T09:49:20;93276.78;;;7.42;41.40
11053;BME280;55230;42.602;23.470;2023-04-07T09:51:56;93256.84;;;7.18;41.36
11053;BME280;55230;42.602;23.470;2023-04-07T09:54:33;93196.19;;;6.36;42.14
11053;BME280;55230;42.602;23.470;2023-04-07T09:57:02;93177.81;;;6.10;42.70
11053;BME280;55230;42.602;23.470;2023-04-07T09:59:30;93280.47;;;7.11;43.63
11053;BME280;55230;42.602;23.470;2023-04-07T10:01:58;93278.97;;;6.84;42.96
11053;BME280;55230;42.602;23.470;2023-04-07T10:04:26;93280.78;;;7.00;43.14
11053;BME280;55230;42.602;23.470;2023-04-07T10:06:53;93281.41;;;7.04;43.52
11053;BME280;55230;42.602;23.470;2023-04-07T10:09:22;93300.63;;;7.28;43.35
11053;BME280;55230;42.602;23.470;2023-04-07T10:11:49;93292.47;;;7.31;43.97
11053;BME280;55230;42.602;23.470;2023-04-07T10:14:19;93295.31;;;7.74;43.99
11053;BME280;55230;42.602;23.470;2023-04-07T10:16:47;93291.75;;;7.77;44.12
11053;BME280;55230;42.602;23.470;2023-04-07T10:19:17;93291.22;;;7.82;42.57
11053;BME280;55230;42.602;23.470;2023-04-07T10:21:44;93318.53;;;7.56;42.86
11053;BME280;55230;42.602;23.470;2023-04-07T10:24:21;93294.94;;;7.26;44.04
11053;BME280;55230;42.602;23.470;2023-04-07T10:26:52;93303.72;;;7.39;43.92
11053;BME280;55230;42.602;23.470;2023-04-07T10:29:22;93233.72;;;6.86;43.63
11053;BME280;55230;42.602;23.470;2023-04-07T10:31:50;93299.22;;;7.48;43.96
11053;BME280;55230;42.602;23.470;2023-04-07T10:34:57;93295.38;;;7.12;43.75
11053;BME280;55230;42.602;23.470;2023-04-07T10:37:26;93274.13;;;6.92;43.85
11053;BME280;55230;42.602;23.470;2023-04-07T10:42:55;93299.63;;;7.59;44.20
11053;BME280;55230;42.602;23.470;2023-04-07T10:45:57;93299.88;;;7.52;44.01
11053;BME280;55230;42.602;23.470;2023-04-07T10:48:25;93300.00;;;7.83;44.07
11053;BME280;55230;42.602;23.470;2023-04-07T10:51:13;93293.97;;;7.91;43.72
11053;BME280;55230;42.602;23.470;2023-04-07T10:57:07;93240.13;;;7.73;41.95
11053;BME280;55230;42.602;23.470;2023-04-07T10:59:37;93286.06;;;7.75;41.98
11053;BME280;55230;42.602;23.470;2023-04-07T11:02:36;93316.72;;;6.90;47.49
11053;BME280;55230;42.602;23.470;2023-04-07T11:05:03;93311.75;;;6.76;48.78
11053;BME280;55230;42.602;23.470;2023-04-07T11:07:45;93309.41;;;7.03;48.16
11053;BME280;55230;42.602;23.470;2023-04-07T11:10:13;93251.53;;;6.27;48.44
11053;BME280;55230;42.602;23.470;2023-04-07T11:12:40;93210.75;;;5.65;49.49
11053;BME280;55230;42.602;23.470;2023-04-07T11:15:20;93328.03;;;6.40;49.82
11053;BME280;55230;42.602;23.470;2023-04-07T11:18:06;93325.72;;;6.55;48.73
11053;BME280;55230;42.602;23.470;2023-04-07T11:20:44;93327.63;;;6.95;49.05
11053;BME280;55230;42.602;23.470;2023-04-07T11:23:12;93302.72;;;6.70;48.01
11053;BME280;55230;42.602;23.470;2023-04-07T11:25:41;93286.66;;;6.82;47.23
11053;BME280;55230;42.602;23.470;2023-04-07T11:28:09;93314.56;;;7.35;47.02
11053;BME280;55230;42.602;23.470;2023-04-07T11:30:36;93325.94;;;7.27;47.27
11053;BME280;55230;42.602;23.470;2023-04-07T11:33:04;93286.13;;;6.75;47.41
11053;BME280;55230;42.602;23.470;2023-04-07T11:35:32;93370.66;;;7.17;46.88
11053;BME280;55230;42.602;23.470;2023-04-07T11:37:59;93242.28;;;6.69;47.88
11053;BME280;55230;42.602;23.470;2023-04-07T11:40:33;93323.88;;;7.68;47.79
11053;BME280;55230;42.602;23.470;2023-04-07T11:43:01;93292.16;;;7.88;45.10
11053;BME280;55230;42.602;23.470;2023-04-07T11:45:28;93284.06;;;7.67;44.70
11053;BME280;55230;42.602;23.470;2023-04-07T11:47:55;93316.16;;;8.04;43.85
11053;BME280;55230;42.602;23.470;2023-04-07T11:50:39;93327.69;;;8.61;43.36
11053;BME280;55230;42.602;23.470;2023-04-07T11:53:07;93280.09;;;8.05;44.07
11053;BME280;55230;42.602;23.470;2023-04-07T11:55:34;93151.22;;;7.28;43.58
11053;BME280;55230;42.602;23.470;2023-04-07T11:58:05;93301.03;;;8.32;42.13
11053;BME280;55230;42.602;23.470;2023-04-07T12:00:34;93323.53;;;8.26;44.11
11053;BME280;55230;42.602;23.470;2023-04-07T12:03:11;93269.31;;;7.25;44.41
11053;BME280;55230;42.602;23.470;2023-04-07T12:05:43;93300.59;;;7.53;46.38
11053;BME280;55230;42.602;23.470;2023-04-07T12:08:10;93324.19;;;7.83;45.84
11053;BME280;55230;42.602;23.470;2023-04-07T12:10:37;93327.97;;;7.60;47.10
11053;BME280;55230;42.602;23.470;2023-04-07T12:13:05;93231.03;;;6.74;46.69
11053;BME280;55230;42.602;23.470;2023-04-07T12:15:32;93244.56;;;6.83;46.78
11053;BME280;55230;42.602;23.470;2023-04-07T12:17:59;93148.94;;;5.76;47.12
11053;BME280;55230;42.602;23.470;2023-04-07T12:20:27;93321.22;;;7.43;48.66
11053;BME280;55230;42.602;23.470;2023-04-07T12:22:55;93266.28;;;6.60;47.48
11053;BME280;55230;42.602;23.470;2023-04-07T12:25:22;93281.88;;;6.90;47.11
11053;BME280;55230;42.602;23.470;2023-04-07T12:27:49;93270.38;;;7.15;48.30
11053;BME280;55230;42.602;23.470;2023-04-07T12:30:16;92839.19;;;4.01;47.52
11053;BME280;55230;42.602;23.470;2023-04-07T12:32:42;93290.88;;;7.21;48.23
11053;BME280;55230;42.602;23.470;2023-04-07T12:35:10;93289.69;;;7.22;48.08
11053;BME280;55230;42.602;23.470;2023-04-07T12:37:37;93245.63;;;6.98;49.33
11053;BME280;55230;42.602;23.470;2023-04-07T12:40:06;93174.13;;;6.82;49.02
11053;BME280;55230;42.602;23.470;2023-04-07T12:42:33;93329.66;;;7.79;47.15
11053;BME280;55230;42.602;23.470;2023-04-07T12:45:00;93337.16;;;7.84;46.17
11053;BME280;55230;42.602;23.470;2023-04-07T12:47:27;93281.91;;;8.08;50.00
11053;BME280;55230;42.602;23.470;2023-04-07T12:49:54;93327.19;;;8.75;45.76
11053;BME280;55230;42.602;23.470;2023-04-07T12:52:20;93321.22;;;8.02;46.83
11053;BME280;55230;42.602;23.470;2023-04-07T12:54:47;93330.03;;;7.90;45.90
11053;BME280;55230;42.602;23.470;2023-04-07T12:57:15;92982.75;;;5.08;47.73
11053;BME280;55230;42.602;23.470;2023-04-07T12:59:42;93291.94;;;7.36;47.03
11053;BME280;55230;42.602;23.470;2023-04-07T13:02:09;93331.41;;;7.61;47.54
11053;BME280;55230;42.602;23.470;2023-04-07T13:04:38;93331.34;;;7.98;46.67
11053;BME280;55230;42.602;23.470;2023-04-07T13:07:07;93348.91;;;8.25;46.00
11053;BME280;55230;42.602;23.470;2023-04-07T13:09:34;93260.06;;;7.38;46.73
11053;BME280;55230;42.602;23.470;2023-04-07T13:12:01;93306.50;;;7.60;48.68